Aérodrome :
LOGIN :

S'inscrire | Disclaimer

   EN    FR    IT 

 










Légende :    VFR   VFR Marginal   IFR   IFR Intensif   IFR Très Intensif
Visi : 
Plafond : 
>= 8 km
>= 3000ft
5 à 8 km
1000 à 3000 ft
1500m à 5 km
500 à 1000 ft
800 à 1500m
200 à 500 ft
< 800m
< 200 ft
Symboles :   Orages  Brouillard  Fortes neiges  Fortes précipitations  Vent > 20 kt
SIGMETs :   Divers  Orages  Givrage  Turbulence  Onde Orograph.  Cendres Volcan.







- Altitude de l'aérodrome : 436 ft
- Code IATA : ANG
- Voir les cartes d'approche


LFBU - Angoulême Brie Champniers

DERNIER METAR :
  • 172300Z AUTO 20004KT 7000 FEW011 BKN180 06/05 Q1030

METARs EXPIRÉS :
  • 172230Z AUTO 21003KT 180V240 8000 SCT019 SCT240 06/06 Q1030
  • 172200Z AUTO 19004KT 5000 BR FEW019 SCT240 06/05 Q1030
  • 172130Z AUTO 23003KT 9000 FEW019 OVC110 06/06 Q1030
  • 172100Z AUTO 19003KT 160V220 7000 NSC 06/05 Q1030 TEMPO 2000 RADZ OVC002
  • 172030Z AUTO 18003KT 6000 FEW031 SCT084 OVC120 06/05 Q1031 TEMPO 2000 RADZ OVC002

TAF TAF LFBU
Valide du 17 à 18h jusqu'au 18 à 18h UTC


171700Z 1718/1818 20005KT 9999 BKN015
TEMPO 1721/1813 2000 RADZ OVC005
PROB40
TEMPO 1722/1813 OVC002
BECMG 1813/1815 35015KT BKN013
BECMG 1816/1818 05010KT CAVOK
Pas de NOTAMs connus pour ce terrain.



MET'MAP, la Météo Aéronautique d'un coup d'oeil ! - Copyright ORBIFLY Décembre 2007 - Disclaimer

ORBIFLY MET'MAP TEAM :

Programmation & Développement : Alexandra Zaïnal
Conception & Développement : Baudouin d'Aumeries
Co-Programmation & Développement : Marc-Olivier Méhu
Soutien technique & logistique : Manuel Goepfert

Contact : metmap@orbifly.com




SOURCES & CREDITS :

   NOAA